Time;durP1;ratioP1;P1;durP2;ratioP2;P2;SDS_P1;SDS_P2;PMS_P1;PMS_P2;Temp;Humidity;BMP_temperature;BMP_pressure;BME280_temperature;BME280_humidity;BME280_pressure;Samples;Min_cycle;Max_cycle;Signal;HPM_P1;HPM_P2
2023/07/04 00:01:45;;;;;;;14.90;4.10;;;;;;;15.58;50.21;100283.05;111023;1212;96202;-67
2023/07/04 00:04:12;;;;;;;13.50;4.50;;;;;;;15.55;50.26;100285.91;110973;1208;98971;-67
2023/07/04 00:06:38;;;;;;;20.30;4.60;;;;;;;15.50;50.38;100278.36;110690;1212;139980;-67
2023/07/04 00:09:04;;;;;;;19.20;4.30;;;;;;;15.46;50.50;100273.59;110941;1209;96352;-67
2023/07/04 00:11:30;;;;;;;11.40;4.50;;;;;;;15.43;50.60;100277.02;110904;1209;139817;-67
2023/07/04 00:13:56;;;;;;;10.30;4.70;;;;;;;15.40;50.81;100276.20;111042;1209;97530;-67
2023/07/04 00:16:21;;;;;;;10.50;4.30;;;;;;;15.36;50.80;100273.77;110869;1212;97683;-67
2023/07/04 00:18:47;;;;;;;10.20;4.50;;;;;;;15.33;50.99;100273.65;110825;1208;138194;-67
2023/07/04 00:21:14;;;;;;;14.80;5.00;;;;;;;15.29;51.03;100269.05;111132;1210;97684;-67
2023/07/04 00:23:44;;;;;;;13.80;4.40;;;;;;;15.25;51.18;100271.98;110768;1212;139720;-67
2023/07/04 00:26:10;;;;;;;11.90;4.60;;;;;;;15.23;51.29;100273.05;111086;1209;97571;-65
2023/07/04 00:28:38;;;;;;;15.40;5.00;;;;;;;15.18;51.48;100265.45;110917;1209;139532;-65
2023/07/04 00:31:05;;;;;;;11.80;4.90;;;;;;;15.12;51.56;100262.44;111089;1212;97598;-65
2023/07/04 00:33:31;;;;;;;12.20;4.60;;;;;;;15.08;51.80;100264.20;111091;1208;97704;-66
2023/07/04 00:36:07;;;;;;;13.40;4.70;;;;;;;15.05;51.98;100268.55;111013;1210;138673;-66
2023/07/04 00:38:33;;;;;;;11.70;4.90;;;;;;;15.00;52.19;100267.77;111101;1212;111432;-66
2023/07/04 00:41:01;;;;;;;14.10;5.60;;;;;;;14.95;52.24;100269.92;110903;1212;140855;-67
2023/07/04 00:43:45;;;;;;;18.70;5.60;;;;;;;14.90;52.49;100266.99;111045;1209;97680;-65
2023/07/04 00:46:14;;;;;;;13.00;5.00;;;;;;;14.86;52.53;100266.19;111056;1210;97756;-67
2023/07/04 00:48:44;;;;;;;11.90;5.50;;;;;;;14.81;52.62;100268.34;110922;1212;140509;-67
2023/07/04 00:51:11;;;;;;;20.50;5.10;;;;;;;14.75;52.93;100264.98;110940;1212;110865;-67
2023/07/04 00:53:37;;;;;;;15.60;4.70;;;;;;;14.70;53.07;100259.56;110879;1208;139175;-67
2023/07/04 00:56:02;;;;;;;14.20;4.80;;;;;;;14.67;53.19;100260.13;111055;1208;97680;-67
2023/07/04 00:58:28;;;;;;;18.00;5.70;;;;;;;14.65;53.37;100263.13;110814;1212;138652;-67
2023/07/04 01:00:53;;;;;;;12.70;5.10;;;;;;;14.63;53.45;100262.55;111072;1209;97998;-67
2023/07/04 01:03:24;;;;;;;14.80;4.80;;;;;;;14.61;53.63;100261.75;111093;1212;97723;-67
2023/07/04 01:06:14;;;;;;;14.60;4.90;;;;;;;14.60;53.78;100261.64;110891;1208;138610;-67
2023/07/04 01:08:42;;;;;;;14.00;5.70;;;;;;;14.58;53.86;100264.65;110918;1212;97596;-67
2023/07/04 01:11:25;;;;;;;14.40;5.40;;;;;;;14.57;54.01;100262.59;110895;1209;139209;-67
2023/07/04 01:13:51;;;;;;;15.50;5.40;;;;;;;14.56;54.09;100259.07;110992;1212;100026;-67
2023/07/04 01:16:18;;;;;;;13.90;4.80;;;;;;;14.53;54.15;100265.19;111066;1212;96250;-67
2023/07/04 01:18:47;;;;;;;14.70;5.20;;;;;;;14.47;54.22;100262.30;110731;1212;138383;-67
2023/07/04 01:21:17;;;;;;;15.20;5.50;;;;;;;14.44;54.36;100261.84;110954;1209;96296;-67
2023/07/04 01:23:59;;;;;;;18.70;4.90;;;;;;;14.37;54.41;100259.58;110753;1212;138400;-67
2023/07/04 01:26:39;;;;;;;10.90;4.50;;;;;;;14.27;54.60;100263.95;111041;1209;99972;-67
2023/07/04 01:29:08;;;;;;;11.90;6.10;;;;;;;14.20;54.81;100269.11;110895;1212;139475;-67
2023/07/04 01:31:35;;;;;;;15.90;5.40;;;;;;;14.15;54.88;100264.23;110972;1209;97587;-67
2023/07/04 01:34:04;;;;;;;12.50;5.10;;;;;;;14.08;54.90;100262.85;111030;1212;97566;-67
2023/07/04 01:36:32;;;;;;;27.10;5.10;;;;;;;13.99;55.08;100268.49;110941;1208;140516;-65
2023/07/04 01:38:58;;;;;;;18.10;5.80;;;;;;;13.89;55.16;100265.87;110994;1209;102057;-65
2023/07/04 01:41:24;;;;;;;13.90;5.80;;;;;;;13.85;55.44;100264.33;110954;1209;139223;-66
2023/07/04 01:44:07;;;;;;;14.40;5.30;;;;;;;13.84;55.60;100261.33;111092;1212;97735;-66
2023/07/04 01:46:34;;;;;;;17.40;5.20;;;;;;;13.86;55.78;100262.46;110813;1212;139720;-64
2023/07/04 01:49:00;;;;;;;13.70;6.00;;;;;;;13.90;55.83;100262.94;111121;1212;97733;-65
2023/07/04 01:51:31;;;;;;;13.00;5.20;;;;;;;13.93;55.85;100259.34;111032;1209;97687;-68
2023/07/04 01:53:57;;;;;;;13.40;5.00;;;;;;;13.95;56.05;100254.52;110895;1209;140794;-65
2023/07/04 01:56:22;;;;;;;11.60;4.70;;;;;;;13.98;56.06;100257.76;111186;1212;97707;-65
2023/07/04 01:58:48;;;;;;;15.20;5.70;;;;;;;13.97;56.21;100257.80;110843;1209;139752;-65
2023/07/04 02:01:13;;;;;;;11.70;5.00;;;;;;;13.97;56.40;100257.81;110974;1210;97705;-65
2023/07/04 02:03:38;;;;;;;21.30;6.50;;;;;;;13.97;56.56;100254.38;111011;1212;96869;-65
2023/07/04 02:06:04;;;;;;;14.10;6.40;;;;;;;13.98;56.48;100249.29;111045;1209;138154;-65
2023/07/04 02:08:29;;;;;;;15.30;5.60;;;;;;;13.99;56.60;100251.59;111024;1222;97689;-64
2023/07/04 02:10:54;;;;;;;18.10;5.80;;;;;;;13.98;56.63;100253.97;110950;1209;138192;-65
2023/07/04 02:13:20;;;;;;;20.00;5.50;;;;;;;13.97;56.72;100251.36;111166;1208;97680;-65
2023/07/04 02:15:45;;;;;;;13.60;5.30;;;;;;;13.95;56.72;100251.08;111032;1210;97584;-65
2023/07/04 02:18:10;;;;;;;15.70;5.70;;;;;;;13.95;56.77;100251.64;110769;1212;137972;-65
2023/07/04 02:20:35;;;;;;;17.70;5.40;;;;;;;13.94;56.91;100253.51;111015;1210;97716;-65
2023/07/04 02:23:01;;;;;;;10.00;5.00;;;;;;;13.93;56.84;100253.73;110896;1215;139719;-65
2023/07/04 02:25:26;;;;;;;11.10;5.20;;;;;;;13.94;56.95;100249.41;111045;1212;97601;-66
2023/07/04 02:27:52;;;;;;;18.60;5.70;;;;;;;13.94;57.03;100245.27;111111;1208;97587;-65
2023/07/04 02:30:17;;;;;;;16.40;5.90;;;;;;;13.94;57.04;100242.04;110899;1212;140492;-65
2023/07/04 02:32:42;;;;;;;19.80;5.80;;;;;;;13.94;57.04;100246.65;111022;1208;96311;-65
2023/07/04 02:35:08;;;;;;;15.30;4.80;;;;;;;13.95;57.17;100242.65;110983;1212;140783;-66
2023/07/04 02:37:33;;;;;;;12.20;5.00;;;;;;;13.95;57.11;100241.78;110925;1208;97559;-65
2023/07/04 02:39:58;;;;;;;13.30;5.30;;;;;;;13.93;57.20;100243.15;111106;1212;97827;-65
2023/07/04 02:42:24;;;;;;;15.00;4.70;;;;;;;13.91;57.26;100245.81;110868;1209;139352;-65
2023/07/04 02:44:50;;;;;;;15.80;4.70;;;;;;;13.90;57.29;100251.64;111000;1212;96818;-65
2023/07/04 02:47:17;;;;;;;11.90;4.70;;;;;;;13.87;57.44;100248.77;110866;1212;139606;-66
2023/07/04 02:49:43;;;;;;;10.00;4.50;;;;;;;13.86;57.42;100250.81;111018;1209;112139;-65
2023/07/04 02:52:09;;;;;;;10.60;4.80;;;;;;;13.85;57.59;100244.73;111088;1209;97601;-65
2023/07/04 02:54:34;;;;;;;10.60;4.40;;;;;;;13.85;57.59;100242.05;111024;1210;140141;-65
2023/07/04 02:56:59;;;;;;;21.20;5.80;;;;;;;13.85;57.73;100244.39;111078;1208;97728;-65
2023/07/04 02:59:24;;;;;;;16.00;5.00;;;;;;;13.87;57.72;100243.92;110896;1212;138524;-65
2023/07/04 03:01:51;;;;;;;17.10;5.50;;;;;;;13.88;57.77;100242.55;111048;1212;97695;-65
2023/07/04 03:04:16;;;;;;;14.80;5.40;;;;;;;13.89;57.76;100245.73;111072;1208;97566;-65
2023/07/04 03:06:41;;;;;;;16.70;5.80;;;;;;;13.89;57.88;100242.52;110969;1209;139890;-65
2023/07/04 03:09:07;;;;;;;27.10;6.70;;;;;;;13.91;57.85;100238.44;110909;1208;97630;-65
2023/07/04 03:11:32;;;;;;;14.00;5.20;;;;;;;13.93;57.90;100236.84;110734;1208;138457;-65
2023/07/04 03:13:57;;;;;;;19.50;5.30;;;;;;;13.95;57.82;100239.23;110947;1212;97701;-65
2023/07/04 03:16:22;;;;;;;22.50;5.80;;;;;;;13.96;57.82;100237.38;111041;1212;97639;-63
2023/07/04 03:18:48;;;;;;;21.10;5.10;;;;;;;13.97;57.87;100240.23;110863;1212;138948;-64
2023/07/04 03:21:13;;;;;;;14.70;5.10;;;;;;;13.98;57.80;100238.34;110870;1212;97608;-65
2023/07/04 03:23:38;;;;;;;13.20;5.00;;;;;;;13.99;57.94;100240.09;110868;1212;140100;-64
2023/07/04 03:26:04;;;;;;;13.00;5.40;;;;;;;14.00;57.99;100232.52;111054;1212;97601;-64
2023/07/04 03:28:29;;;;;;;14.80;4.60;;;;;;;14.02;57.95;100235.42;110853;1209;140161;-63
2023/07/04 03:30:55;;;;;;;15.40;4.70;;;;;;;14.03;57.95;100233.71;111139;1208;97989;-64
2023/07/04 03:33:21;;;;;;;18.40;5.70;;;;;;;14.04;58.05;100231.67;111105;1208;111583;-64
2023/07/04 03:35:46;;;;;;;19.30;5.70;;;;;;;14.08;58.11;100228.94;110999;1212;139847;-64
2023/07/04 03:38:11;;;;;;;13.90;4.70;;;;;;;14.10;58.12;100231.11;110891;1208;97598;-64
2023/07/04 03:40:36;;;;;;;14.70;4.90;;;;;;;14.12;58.19;100233.30;110777;1209;139430;-64
2023/07/04 03:43:02;;;;;;;16.50;5.80;;;;;;;14.15;58.29;100227.89;111131;1210;97584;-64
2023/07/04 03:45:27;;;;;;;15.40;5.80;;;;;;;14.19;58.37;100229.46;111022;1212;98939;-64
2023/07/04 03:47:52;;;;;;;15.20;5.70;;;;;;;14.21;58.36;100228.60;110972;1208;138550;-64
2023/07/04 03:50:18;;;;;;;13.60;5.90;;;;;;;14.24;58.38;100232.19;111119;1209;97755;-64
2023/07/04 03:52:44;;;;;;;11.50;4.60;;;;;;;14.27;58.31;100236.44;110975;1208;138897;-64
2023/07/04 03:55:10;;;;;;;20.00;5.20;;;;;;;14.29;58.32;100233.63;110989;1208;97726;-64
2023/07/04 03:57:35;;;;;;;22.30;5.20;;;;;;;14.31;58.36;100230.13;111009;1208;97549;-64
2023/07/04 04:00:00;;;;;;;20.50;4.80;;;;;;;14.33;58.39;100224.05;110932;1212;140903;-64
2023/07/04 04:02:26;;;;;;;19.60;5.10;;;;;;;14.37;58.52;100223.95;111149;1208;97597;-64
2023/07/04 04:04:51;;;;;;;10.50;4.60;;;;;;;14.41;58.47;100222.08;110897;1212;140804;-64
2023/07/04 04:07:16;;;;;;;17.40;5.30;;;;;;;14.45;58.41;100219.52;111159;1209;97591;-64
2023/07/04 04:09:42;;;;;;;15.10;5.10;;;;;;;14.49;58.49;100220.12;111067;1212;97669;-64
2023/07/04 04:12:09;;;;;;;14.30;5.00;;;;;;;14.53;58.46;100218.95;110832;1209;140332;-64
2023/07/04 04:14:36;;;;;;;13.70;4.50;;;;;;;14.57;58.51;100222.10;110838;1208;101040;-64
2023/07/04 04:17:03;;;;;;;19.40;5.20;;;;;;;14.62;58.62;100218.75;110929;1208;141038;-64
2023/07/04 04:19:28;;;;;;;15.30;4.80;;;;;;;14.66;58.52;100214.55;110950;1212;97620;-64
2023/07/04 04:21:55;;;;;;;18.60;4.70;;;;;;;14.69;58.56;100216.65;111117;1208;96268;-64
2023/07/04 04:24:22;;;;;;;16.30;4.70;;;;;;;14.71;58.59;100219.38;110978;1210;139326;-64
2023/07/04 04:26:48;;;;;;;16.70;5.00;;;;;;;14.74;58.60;100221.73;111040;1212;95707;-64
2023/07/04 04:29:17;;;;;;;12.90;5.20;;;;;;;14.76;58.69;100223.72;110955;1212;140337;-64
2023/07/04 04:31:44;;;;;;;15.60;5.30;;;;;;;14.79;58.67;100220.12;110844;1208;97708;-64
2023/07/04 04:34:11;;;;;;;16.90;5.10;;;;;;;14.83;58.75;100222.89;110787;1210;98110;-64
2023/07/04 04:36:36;;;;;;;14.10;5.40;;;;;;;14.88;58.81;100226.31;110831;1212;138677;-64
2023/07/04 04:39:02;;;;;;;16.20;4.80;;;;;;;14.93;58.80;100228.69;111133;1209;97684;-64
2023/07/04 04:41:29;;;;;;;14.50;4.90;;;;;;;15.00;58.78;100233.08;110908;1208;138514;-63
2023/07/04 04:43:55;;;;;;;10.20;4.30;;;;;;;15.08;58.89;100230.38;111069;1208;97665;-64
2023/07/04 04:46:22;;;;;;;12.80;4.20;;;;;;;15.16;58.82;100232.14;111028;1209;97726;-64
2023/07/04 04:48:47;;;;;;;11.70;3.60;;;;;;;15.26;58.82;100231.82;110792;1208;139392;-65
2023/07/04 04:51:15;;;;;;;21.30;4.80;;;;;;;15.37;58.80;100228.69;110916;1209;99990;-65
2023/07/04 04:53:42;;;;;;;16.70;4.00;;;;;;;15.51;58.77;100235.45;110899;1208;139949;-64
2023/07/04 04:56:08;;;;;;;17.50;7.40;;;;;;;15.66;58.73;100233.64;111035;1209;98329;-65
2023/07/04 04:58:35;;;;;;;13.50;4.70;;;;;;;15.81;58.68;100235.08;110923;1208;139024;-64
2023/07/04 05:01:14;;;;;;;19.90;4.80;;;;;;;15.95;58.57;100236.98;111011;1210;97710;-65
2023/07/04 05:03:41;;;;;;;16.10;3.90;;;;;;;16.07;58.48;100238.31;111012;1212;100110;-65
2023/07/04 05:06:06;;;;;;;18.20;4.40;;;;;;;16.13;58.40;100241.09;110874;1210;138471;-65
2023/07/04 05:08:32;;;;;;;17.70;5.30;;;;;;;16.18;58.25;100240.19;111064;1209;99109;-65
2023/07/04 05:11:00;;;;;;;15.40;4.80;;;;;;;16.23;58.19;100238.38;110821;1212;138605;-65
2023/07/04 05:13:25;;;;;;;20.90;4.40;;;;;;;16.27;58.13;100235.90;110956;1212;100072;-63
2023/07/04 05:15:58;;;;;;;24.60;5.00;;;;;;;16.33;58.11;100238.01;111046;1208;97559;-63
2023/07/04 05:18:24;;;;;;;13.80;4.70;;;;;;;16.40;58.00;100240.00;110752;1212;139320;-64
2023/07/04 05:20:59;;;;;;;13.90;4.50;;;;;;;16.48;57.98;100238.70;110911;1210;97648;-64
2023/07/04 05:23:24;;;;;;;10.60;4.20;;;;;;;16.58;57.90;100240.50;111066;1209;138846;-64
2023/07/04 05:25:59;;;;;;;28.00;5.30;;;;;;;16.67;57.68;100239.13;111119;1212;97693;-65
2023/07/04 05:28:24;;;;;;;17.00;4.90;;;;;;;16.75;57.40;100243.38;110933;1208;99244;-65
2023/07/04 05:30:56;;;;;;;19.80;5.30;;;;;;;16.84;57.44;100243.35;110779;1209;138595;-65
2023/07/04 05:33:22;;;;;;;14.90;4.00;;;;;;;16.94;57.41;100242.23;110953;1208;96608;-65
2023/07/04 05:35:47;;;;;;;16.40;4.50;;;;;;;17.03;57.10;100233.96;110751;1212;139605;-65
2023/07/04 05:38:13;;;;;;;16.70;4.60;;;;;;;17.14;57.01;100232.08;111002;1208;98283;-65
2023/07/04 05:40:41;;;;;;;13.90;4.50;;;;;;;17.24;56.79;100228.09;110713;1208;139308;-63
2023/07/04 05:43:06;;;;;;;10.80;3.90;;;;;;;17.34;56.81;100226.33;110963;1212;97534;-63
2023/07/04 05:45:31;;;;;;;11.80;4.10;;;;;;;17.41;56.68;100223.80;110883;1212;98845;-65
2023/07/04 05:47:57;;;;;;;10.50;4.00;;;;;;;17.49;56.58;100224.41;110785;1209;138989;-65
2023/07/04 05:50:22;;;;;;;16.00;3.90;;;;;;;17.60;56.51;100226.44;110825;1212;104154;-64
2023/07/04 05:52:47;;;;;;;12.10;4.10;;;;;;;17.75;56.14;100226.19;110817;1208;138597;-65
2023/07/04 05:55:13;;;;;;;7.60;3.10;;;;;;;17.86;55.81;100226.73;110857;1209;97609;-65
2023/07/04 05:57:38;;;;;;;14.50;3.70;;;;;;;17.98;55.92;100223.60;110819;1212;97820;-65
2023/07/04 06:00:05;;;;;;;9.80;3.50;;;;;;;18.06;55.39;100222.98;110893;1208;139479;-65
2023/07/04 06:02:31;;;;;;;8.60;3.20;;;;;;;18.15;55.45;100226.58;110859;1213;102760;-63
2023/07/04 06:04:57;;;;;;;9.60;3.90;;;;;;;18.25;55.37;100228.98;110869;1208;138628;-65
2023/07/04 06:07:28;;;;;;;15.80;3.60;;;;;;;18.35;55.04;100228.71;110948;1212;102146;-66
2023/07/04 06:09:53;;;;;;;15.80;3.80;;;;;;;18.44;54.99;100226.30;110900;1209;97588;-65
2023/07/04 06:12:19;;;;;;;10.60;4.00;;;;;;;18.52;55.00;100228.73;110747;1208;138580;-64
2023/07/04 06:14:44;;;;;;;9.90;3.10;;;;;;;18.60;54.75;100229.71;110949;1208;97717;-64
2023/07/04 06:17:09;;;;;;;9.60;3.70;;;;;;;18.68;54.66;100227.38;110720;1208;138838;-64
2023/07/04 06:19:34;;;;;;;13.60;3.00;;;;;;;18.76;54.66;100232.88;110743;1208;98568;-64
2023/07/04 06:22:03;;;;;;;12.30;3.70;;;;;;;18.83;54.49;100236.63;110801;1212;97566;-64
2023/07/04 06:24:28;;;;;;;14.70;3.70;;;;;;;18.87;54.23;100234.70;111543;1208;139388;-65
2023/07/04 06:26:53;;;;;;;13.20;3.70;;;;;;;18.94;54.16;100239.31;110611;1210;97681;-66
2023/07/04 06:29:18;;;;;;;8.30;3.40;;;;;;;19.01;54.17;100234.41;110746;1208;138953;-65
2023/07/04 06:31:44;;;;;;;20.70;4.10;;;;;;;19.05;54.24;100239.63;110727;1209;97664;-66
2023/07/04 06:34:09;;;;;;;10.50;3.70;;;;;;;19.12;53.99;100241.77;110937;1208;96246;-63
2023/07/04 06:36:34;;;;;;;12.10;4.20;;;;;;;19.15;53.72;100248.26;110729;1209;139242;-63
2023/07/04 06:39:00;;;;;;;12.10;4.10;;;;;;;19.14;53.70;100241.81;111003;1208;96652;-65
2023/07/04 06:41:26;;;;;;;9.70;3.20;;;;;;;19.18;53.89;100239.64;110794;1208;140367;-63
2023/07/04 06:43:51;;;;;;;13.20;3.70;;;;;;;19.24;53.81;100244.04;110971;1209;97719;-63
2023/07/04 06:46:19;;;;;;;12.90;4.10;;;;;;;19.32;53.85;100244.27;111173;1208;96582;-63
2023/07/04 06:48:48;;;;;;;15.40;3.70;;;;;;;19.38;53.76;100245.35;111069;1212;138399;-63
2023/07/04 06:51:17;;;;;;;23.40;4.50;;;;;;;19.44;53.64;100246.41;110932;1209;97606;-64
2023/07/04 06:53:43;;;;;;;13.50;4.20;;;;;;;19.49;53.64;100250.20;110997;1208;139760;-64
2023/07/04 06:56:12;;;;;;;10.50;3.40;;;;;;;19.52;53.46;100253.53;110841;1209;97686;-64
2023/07/04 06:58:40;;;;;;;8.70;3.50;;;;;;;19.51;53.45;100261.08;110671;1213;140925;-64
2023/07/04 07:01:07;;;;;;;9.90;3.90;;;;;;;19.51;53.36;100265.09;110777;1212;102924;-64
2023/07/04 07:03:33;;;;;;;12.50;4.00;;;;;;;19.52;53.25;100263.17;110721;1209;98101;-63
2023/07/04 07:06:03;;;;;;;9.30;4.30;;;;;;;19.56;53.19;100260.35;110821;1212;137973;-63
2023/07/04 07:08:31;;;;;;;11.80;4.10;;;;;;;19.58;53.18;100261.94;111074;1209;97578;-65
2023/07/04 07:11:02;;;;;;;13.70;3.90;;;;;;;19.62;53.04;100260.88;110763;1210;138518;-64
2023/07/04 07:13:28;;;;;;;11.60;4.60;;;;;;;19.64;52.99;100262.64;110900;1208;103198;-64
2023/07/04 07:16:11;;;;;;;15.40;4.40;;;;;;;19.68;52.96;100265.80;112025;1209;97572;-63
2023/07/04 07:18:37;;;;;;;11.30;4.40;;;;;;;19.74;52.87;100270.16;110812;1213;138738;-63
2023/07/04 07:21:04;;;;;;;8.60;3.40;;;;;;;19.79;52.90;100263.55;110923;1209;97608;-64
2023/07/04 07:23:31;;;;;;;11.50;4.60;;;;;;;19.87;52.87;100261.36;110770;1209;138008;-63
2023/07/04 07:25:59;;;;;;;11.70;4.30;;;;;;;19.96;52.84;100262.41;110986;1208;96350;-64
2023/07/04 07:28:26;;;;;;;11.60;4.60;;;;;;;20.06;52.77;100259.48;111272;1211;97757;-64
2023/07/04 07:31:21;;;;;;;15.00;4.10;;;;;;;20.12;52.65;100258.20;111163;1208;96487;-64
2023/07/04 07:33:48;;;;;;;12.30;4.30;;;;;;;20.17;52.63;100260.67;110749;1214;97684;-64
2023/07/04 07:36:37;;;;;;;9.70;4.70;;;;;;;20.24;52.54;100263.52;110812;1208;138467;-64
2023/07/04 07:39:04;;;;;;;12.00;4.60;;;;;;;20.29;52.32;100263.10;110987;1209;102767;-64
2023/07/04 07:41:32;;;;;;;10.40;4.80;;;;;;;20.34;52.37;100262.75;110805;1212;139327;-63
2023/07/04 07:43:58;;;;;;;18.20;5.50;;;;;;;20.44;52.37;100265.15;111113;1212;99327;-63
2023/07/04 07:46:24;;;;;;;11.10;5.20;;;;;;;20.59;52.08;100267.07;110959;1208;97569;-63
2023/07/04 07:48:50;;;;;;;12.30;4.90;;;;;;;20.65;51.85;100266.50;110942;1212;138877;-63
2023/07/04 07:51:17;;;;;;;10.60;4.90;;;;;;;20.72;51.58;100266.98;111093;1210;97754;-63
2023/07/04 07:53:44;;;;;;;14.70;5.60;;;;;;;20.75;51.39;100268.33;111278;1208;138117;-63
2023/07/04 07:56:11;;;;;;;19.80;5.50;;;;;;;20.79;50.83;100274.50;110887;1212;97684;-63
2023/07/04 07:58:37;;;;;;;13.60;5.50;;;;;;;20.81;50.40;100265.02;110808;1212;138152;-63
2023/07/04 08:01:14;;;;;;;22.50;5.50;;;;;;;20.87;50.59;100259.51;110839;1208;97700;-64
2023/07/04 08:03:41;;;;;;;15.70;5.80;;;;;;;20.95;50.49;100263.67;111123;1208;98897;-63
2023/07/04 08:06:07;;;;;;;15.60;5.30;;;;;;;21.03;50.31;100269.70;110870;1212;139902;-63
2023/07/04 08:08:33;;;;;;;13.90;6.00;;;;;;;21.08;49.95;100277.55;111146;1208;97537;-63
2023/07/04 08:10:58;;;;;;;17.40;6.40;;;;;;;21.08;49.66;100262.45;110988;1212;139398;-63
2023/07/04 08:13:23;;;;;;;18.00;6.00;;;;;;;21.12;49.48;100274.10;111149;1212;97693;-63
2023/07/04 08:15:53;;;;;;;14.30;5.60;;;;;;;21.16;49.24;100273.41;111051;1208;98948;-63
2023/07/04 08:18:20;;;;;;;11.60;5.60;;;;;;;21.17;48.96;100280.16;111042;1208;140274;-63
2023/07/04 08:21:04;;;;;;;13.40;6.20;;;;;;;21.18;48.77;100271.17;111044;1212;97711;-63
2023/07/04 08:23:30;;;;;;;15.80;6.60;;;;;;;21.21;48.76;100266.04;110980;1209;140129;-64
2023/07/04 08:25:56;;;;;;;13.90;5.70;;;;;;;21.28;48.59;100266.85;111070;1209;97874;-64
2023/07/04 08:28:22;;;;;;;19.60;7.00;;;;;;;21.34;48.25;100264.98;111212;1212;97588;-64
2023/07/04 08:30:49;;;;;;;25.00;6.60;;;;;;;21.41;48.04;100271.80;110897;1208;140045;-64
2023/07/04 08:33:17;;;;;;;17.40;5.80;;;;;;;21.48;47.49;100271.09;111139;1212;97772;-63
2023/07/04 08:36:01;;;;;;;22.30;6.50;;;;;;;21.52;46.94;100280.73;111036;1208;139864;-65
2023/07/04 08:38:27;;;;;;;11.70;5.30;;;;;;;21.52;46.73;100276.55;111111;1212;97586;-64
2023/07/04 08:40:53;;;;;;;9.80;4.90;;;;;;;21.52;46.60;100270.36;110956;1209;139961;-63
2023/07/04 08:43:27;;;;;;;12.70;5.40;;;;;;;21.54;46.48;100273.45;111153;1208;97567;-64
2023/07/04 08:45:53;;;;;;;21.10;5.70;;;;;;;21.61;46.42;100278.04;111123;1208;96529;-64
2023/07/04 08:48:20;;;;;;;19.50;5.50;;;;;;;21.70;45.88;100287.33;111084;1208;138468;-64
2023/07/04 08:50:47;;;;;;;13.60;5.30;;;;;;;21.69;45.47;100280.69;111101;1208;96201;-64
2023/07/04 08:53:19;;;;;;;13.00;4.50;;;;;;;21.71;45.41;100272.77;111031;1209;140203;-64
2023/07/04 08:55:55;;;;;;;15.60;5.10;;;;;;;21.77;45.36;100279.47;111121;1212;103023;-63
2023/07/04 08:58:27;;;;;;;19.00;5.50;;;;;;;21.80;45.19;100281.67;111167;1209;97747;-63
2023/07/04 09:00:57;;;;;;;14.60;4.70;;;;;;;21.86;45.39;100279.79;111214;1212;98936;-63
2023/07/04 09:03:52;;;;;;;14.20;5.60;;;;;;;21.96;45.37;100283.96;111116;1212;98010;-63
2023/07/04 09:06:23;;;;;;;8.20;5.10;;;;;;;22.05;44.95;100298.03;111029;1212;140320;-64
2023/07/04 09:08:56;;;;;;;9.10;4.10;;;;;;;22.00;44.32;100298.30;111134;1209;103278;-63
2023/07/04 09:11:22;;;;;;;17.20;4.30;;;;;;;21.94;44.13;100288.13;111022;1208;138309;-66
2023/07/04 09:13:55;;;;;;;20.90;5.20;;;;;;;21.97;43.78;100297.08;111160;1212;98362;-63
2023/07/04 09:16:39;;;;;;;15.20;4.10;;;;;;;21.98;43.11;100287.75;111144;1209;99320;-63
2023/07/04 09:19:08;;;;;;;42.90;5.20;;;;;;;22.00;42.94;100285.26;111163;1212;97609;-63
2023/07/04 09:21:36;;;;;;;11.10;4.20;;;;;;;22.08;43.06;100293.76;111093;1212;103586;-63
2023/07/04 09:24:02;;;;;;;9.60;3.70;;;;;;;22.11;42.69;100304.71;111131;1212;138249;-63
2023/07/04 09:26:37;;;;;;;28.50;4.80;;;;;;;22.17;42.84;100291.59;111066;1208;97557;-64
2023/07/04 09:29:06;;;;;;;15.80;4.80;;;;;;;22.23;42.59;100290.45;110999;1213;140415;-64
2023/07/04 09:31:36;;;;;;;27.70;5.50;;;;;;;22.25;42.36;100298.61;111167;1212;97716;-64
2023/07/04 09:34:07;;;;;;;8.80;3.90;;;;;;;22.22;41.85;100299.45;111086;1208;103579;-63
2023/07/04 09:36:33;;;;;;;;;;;;;;;22.25;41.88;100302.95;111032;1210;138625;-64
2023/07/04 09:39:04;;;;;;;8.90;4.60;;;;;;;22.24;41.42;100314.33;111074;1212;100586;-64
2023/07/04 09:41:32;;;;;;;22.60;4.70;;;;;;;22.23;41.70;100307.00;110968;1208;140081;-64
2023/07/04 09:44:32;;;;;;;15.70;4.90;;;;;;;22.24;41.87;100311.11;111085;1208;96490;-63
2023/07/04 09:47:01;;;;;;;15.80;4.00;;;;;;;22.27;41.95;100306.65;110924;1215;139214;-63
2023/07/04 09:49:29;;;;;;;9.40;4.10;;;;;;;22.24;42.00;100301.77;111096;1209;95151;-64
2023/07/04 09:52:18;;;;;;;9.10;3.70;;;;;;;22.24;42.10;100314.16;111069;1212;99987;-63
2023/07/04 09:54:44;;;;;;;15.30;5.30;;;;;;;22.35;42.03;100313.83;110940;1212;138040;-63
2023/07/04 09:57:23;;;;;;;10.20;4.70;;;;;;;22.41;41.55;100310.52;111141;1208;94983;-63
2023/07/04 09:59:53;;;;;;;15.10;4.40;;;;;;;22.42;41.71;100310.58;110945;1212;141503;-63
2023/07/04 10:02:24;;;;;;;9.70;4.20;;;;;;;22.54;41.88;100316.73;111128;1215;97688;-63
2023/07/04 10:04:50;;;;;;;15.60;4.40;;;;;;;22.57;41.82;100318.90;111013;1212;137921;-63
2023/07/04 10:07:21;;;;;;;14.50;4.30;;;;;;;22.54;41.87;100315.21;111182;1208;97601;-63
2023/07/04 10:09:51;;;;;;;;;;;;;;;22.56;41.85;100305.73;111090;1212;99041;-64
2023/07/04 10:12:18;;;;;;;9.50;3.90;;;;;;;22.63;41.74;100303.23;111087;1212;126649;-64
2023/07/04 10:14:57;;;;;;;14.60;4.50;;;;;;;22.80;41.51;100310.60;111181;1208;97617;-63
2023/07/04 10:17:28;;;;;;;8.50;3.60;;;;;;;22.93;41.45;100303.31;111127;1212;139959;-63
2023/07/04 10:20:04;;;;;;;14.10;3.90;;;;;;;22.96;41.47;100305.22;111143;1208;96207;-63
2023/07/04 10:22:33;;;;;;;10.00;4.10;;;;;;;23.05;40.96;100314.40;111173;1208;97632;-63
2023/07/04 10:25:05;;;;;;;10.50;4.20;;;;;;;23.04;40.54;100310.22;111279;1212;103371;-63
2023/07/04 10:27:34;;;;;;;12.90;3.90;;;;;;;23.06;39.80;100305.02;111192;1208;97563;-64
2023/07/04 10:30:03;;;;;;;11.10;4.40;;;;;;;23.02;39.59;100311.54;111051;1209;137967;-63
2023/07/04 10:32:34;;;;;;;9.50;4.10;;;;;;;23.01;39.79;100308.00;111118;1212;99236;-63
2023/07/04 10:35:00;;;;;;;9.30;3.90;;;;;;;23.01;39.71;100305.88;111050;1212;138586;-63
2023/07/04 10:37:31;;;;;;;7.80;3.70;;;;;;;23.05;39.44;100305.83;111161;1208;97669;-63
2023/07/04 10:40:03;;;;;;;13.50;5.00;;;;;;;23.11;39.64;100310.46;111159;1208;96302;-63
2023/07/04 10:42:43;;;;;;;14.90;4.10;;;;;;;23.21;39.57;100313.98;111113;1212;140167;-63
2023/07/04 10:45:13;;;;;;;8.70;4.10;;;;;;;23.19;39.17;100307.05;111192;1208;97599;-63
2023/07/04 10:47:40;;;;;;;18.10;4.10;;;;;;;23.20;38.95;100314.09;110980;1209;138492;-63
2023/07/04 10:50:11;;;;;;;11.30;4.70;;;;;;;23.25;38.98;100317.38;111155;1212;97646;-63
2023/07/04 10:52:38;;;;;;;10.00;4.70;;;;;;;23.35;39.09;100318.54;111080;1213;138769;-63
2023/07/04 10:55:06;;;;;;;8.80;4.50;;;;;;;23.40;39.17;100315.73;111153;1208;99344;-64
2023/07/04 10:57:39;;;;;;;22.00;4.30;;;;;;;23.49;39.12;100318.56;111145;1212;97628;-63
2023/07/04 11:00:12;;;;;;;8.20;3.60;;;;;;;23.63;38.88;100319.84;111081;1209;139181;-63
2023/07/04 11:02:44;;;;;;;9.50;4.30;;;;;;;23.67;37.73;100329.11;111081;1212;103459;-64
2023/07/04 11:05:14;;;;;;;18.90;5.10;;;;;;;23.63;36.98;100322.96;111070;1208;139164;-64
2023/07/04 11:07:42;;;;;;;17.70;4.30;;;;;;;23.67;36.88;100321.63;111074;1208;98060;-64
2023/07/04 11:10:12;;;;;;;9.40;4.50;;;;;;;23.84;37.45;100325.35;111043;1212;97687;-64
2023/07/04 11:12:39;;;;;;;14.10;4.60;;;;;;;23.97;37.17;100323.63;111082;1209;138266;-64